Belgrade/Nikola Tesla Airport

Airport
ICAO code: 
LYBE
IATA Code: 
BEG
Summary
ICAO Region: 
EUR
Location: 
Surčin, Belgrade
Serving: 
Belgrade
Elevation: 
336 ft
Coordinates: 
Aerial View: 
44° 49' 6.144" N, 20° 18' 33.15" E
Metar
Observation
LYBE 180900Z 28012KT 9999 FEW040 02/M02 Q1032 NOSIG
Station
Beograd / Surcin
Date/Time
2022-01-18 09:00:00
Wind direction
280°
Wind speed
12 kts
Lowest cloud amount
few clouds
Temperature
2°C
Dew point
-2°C
Humidity
74%
QNH
1032 hPa
Weather condition
n/a

Description

International airport serving capital of Serbia. The airport is situated 12 km west of central Belgrade, in the municipality of Surčin.

Climatology

Humid continental climate (Köppen climate classification Dfa) - characterized by four seasons: cold, windy, snowy winters, mild springs, hot, humid summers, and crisp and relatively short autumns. Precipitation reaches its lowest in January and February and peaks in summer and latter half of spring.

Runways

Designator Length Width Surface Rops
12/30 3400 45 ASP Yes/Yes
Airport map: 
Aerial View: 

SKYbrary Partners:

Safety knowledge contributed by: